Time;durP1;ratioP1;P1;durP2;ratioP2;P2;SDS_P1;SDS_P2;PMS_P1;PMS_P2;Temp;Humidity;BMP_temperature;BMP_pressure;BME280_temperature;BME280_humidity;BME280_pressure;Samples;Min_cycle;Max_cycle;Signal;HPM_P1;HPM_P2
2022/05/06 00:01:01;;;;;;;17.70;9.85;;;10.90;99.90;;;;;;5072572;28;20025;-67
2022/05/06 00:03:27;;;;;;;17.95;9.50;;;10.80;99.90;;;;;;5072590;28;20028;-66
2022/05/06 00:05:53;;;;;;;20.10;10.70;;;10.80;99.90;;;;;;5072480;28;20111;-66
2022/05/06 00:08:18;;;;;;;18.30;10.27;;;10.70;99.90;;;;;;5072483;28;20547;-66
2022/05/06 00:10:44;;;;;;;18.15;9.88;;;10.70;99.90;;;;;;5054300;28;20024;-65
2022/05/06 00:13:10;;;;;;;18.98;10.52;;;10.70;99.90;;;;;;5072392;28;20028;-67
2022/05/06 00:15:36;;;;;;;22.02;10.65;;;10.60;99.90;;;;;;5072363;28;20593;-66
2022/05/06 00:18:02;;;;;;;18.10;10.55;;;10.60;99.90;;;;;;5073566;28;20024;-66
2022/05/06 00:20:28;;;;;;;18.35;10.90;;;10.60;99.90;;;;;;5054612;28;20020;-66
2022/05/06 00:22:53;;;;;;;20.67;9.95;;;10.50;99.90;;;;;;5072707;28;20027;-66
2022/05/06 00:25:19;;;;;;;16.60;9.75;;;10.50;99.90;;;;;;5054542;28;20107;-67
2022/05/06 00:27:45;;;;;;;18.90;10.80;;;10.50;99.90;;;;;;5072281;28;20103;-67
2022/05/06 00:30:11;;;;;;;16.98;9.75;;;10.50;99.90;;;;;;5072458;28;20062;-68
2022/05/06 00:32:37;;;;;;;19.40;10.57;;;10.50;99.90;;;;;;5071383;28;20028;-67
2022/05/06 00:35:03;;;;;;;18.33;9.98;;;10.40;99.90;;;;;;5072432;28;20104;-66
2022/05/06 00:37:28;;;;;;;19.63;10.82;;;10.50;99.90;;;;;;5071996;28;20052;-66
2022/05/06 00:39:54;;;;;;;18.92;10.32;;;10.50;99.90;;;;;;5072005;28;20062;-67
2022/05/06 00:42:19;;;;;;;21.15;10.75;;;10.50;99.90;;;;;;5072171;28;20070;-66
2022/05/06 00:44:45;;;;;;;20.60;10.52;;;10.50;99.90;;;;;;5072190;28;20480;-67
2022/05/06 00:47:12;;;;;;;19.35;10.82;;;10.40;99.90;;;;;;5072374;28;20506;-66
2022/05/06 00:49:38;;;;;;;18.33;10.02;;;10.30;99.90;;;;;;5072231;28;20025;-67
2022/05/06 00:52:08;;;;;;;18.98;10.40;;;10.30;99.90;;;;;;5072379;28;20032;-68
2022/05/06 00:54:37;;;;;;;20.83;11.18;;;10.20;99.90;;;;;;5072184;28;20028;-67
2022/05/06 00:57:04;;;;;;;18.73;10.10;;;10.20;99.90;;;;;;5072050;28;20016;-68
2022/05/06 00:59:29;;;;;;;19.75;10.57;;;10.20;99.90;;;;;;5054086;28;20442;-67
2022/05/06 01:01:57;;;;;;;17.35;10.60;;;10.10;99.90;;;;;;5072174;28;20025;-67
2022/05/06 01:04:23;;;;;;;19.45;11.43;;;10.00;99.90;;;;;;5071857;28;20040;-67
2022/05/06 01:06:49;;;;;;;18.90;10.82;;;10.00;99.90;;;;;;5071715;28;20022;-67
2022/05/06 01:09:16;;;;;;;18.80;10.68;;;10.00;99.90;;;;;;5071951;28;20024;-67
2022/05/06 01:11:42;;;;;;;19.45;11.02;;;9.90;99.90;;;;;;5072024;28;20033;-67
2022/05/06 01:14:08;;;;;;;18.48;10.73;;;9.90;99.90;;;;;;5071630;28;20025;-67
2022/05/06 01:16:35;;;;;;;20.20;10.90;;;9.90;99.90;;;;;;5071758;28;20028;-67
2022/05/06 01:19:01;;;;;;;18.50;11.35;;;9.90;99.90;;;;;;5071871;28;20052;-67
2022/05/06 01:21:27;;;;;;;19.17;10.50;;;9.90;99.90;;;;;;5072005;28;20095;-68
2022/05/06 01:23:53;;;;;;;18.48;10.40;;;9.90;99.90;;;;;;5071968;28;20032;-68
2022/05/06 01:26:19;;;;;;;18.95;10.15;;;9.90;99.90;;;;;;5053042;28;20032;-67
2022/05/06 01:28:45;;;;;;;22.20;11.82;;;9.90;99.90;;;;;;5071732;28;20029;-67
2022/05/06 01:31:20;;;;;;;19.58;10.98;;;9.90;99.90;;;;;;5071692;28;20021;-66
2022/05/06 01:33:54;;;;;;;19.75;10.57;;;9.80;99.90;;;;;;5071850;28;20085;-67
2022/05/06 01:36:27;;;;;;;19.58;11.15;;;9.80;99.90;;;;;;5053777;28;20043;-66
2022/05/06 01:38:59;;;;;;;23.33;10.77;;;9.70;99.90;;;;;;5071590;28;20396;-67
2022/05/06 01:41:27;;;;;;;20.40;11.32;;;9.70;99.90;;;;;;5071725;28;20025;-67
2022/05/06 01:43:59;;;;;;;;;;;9.60;99.90;;;;;;5054726;28;20431;-67
2022/05/06 01:46:27;;;;;;;21.77;11.40;;;9.60;99.90;;;;;;5075102;28;19912;-67
2022/05/06 01:48:55;;;;;;;23.98;10.73;;;9.60;99.90;;;;;;5075281;28;20109;-67
2022/05/06 01:51:22;;;;;;;19.73;11.52;;;9.60;99.90;;;;;;5057100;28;20036;-67
2022/05/06 01:53:49;;;;;;;18.25;10.95;;;9.60;99.90;;;;;;5075017;28;20024;-66
2022/05/06 01:56:18;;;;;;;23.52;11.10;;;9.50;99.90;;;;;;5074941;28;20039;-66
2022/05/06 01:58:44;;;;;;;20.30;11.70;;;9.40;99.90;;;;;;5075181;28;20021;-66
2022/05/06 02:01:11;;;;;;;18.50;10.75;;;9.40;99.90;;;;;;5074900;28;20198;-66
2022/05/06 02:06:21;;;;;;;20.95;11.25;;;9.50;99.90;;;;;;5075229;28;20075;-67
2022/05/06 02:08:47;;;;;;;19.55;10.93;;;9.40;99.90;;;;;;5074647;28;20056;-65
2022/05/06 02:11:13;;;;;;;20.42;11.30;;;9.30;99.90;;;;;;5074636;28;20029;-66
2022/05/06 02:13:38;;;;;;;18.20;10.85;;;9.20;99.90;;;;;;5074770;28;20103;-66
2022/05/06 02:16:05;;;;;;;21.10;11.88;;;9.20;99.90;;;;;;5074682;28;20096;-67
2022/05/06 02:18:30;;;;;;;23.63;11.35;;;9.20;99.90;;;;;;5056506;28;20078;-67
2022/05/06 02:21:00;;;;;;;21.25;11.00;;;9.20;99.90;;;;;;5056619;28;20028;-67
2022/05/06 02:23:26;;;;;;;21.13;10.50;;;9.20;99.90;;;;;;5074551;28;20031;-66
2022/05/06 02:25:52;;;;;;;22.52;11.70;;;9.10;99.90;;;;;;5074734;28;20024;-66
2022/05/06 02:28:18;;;;;;;20.98;11.25;;;9.10;99.90;;;;;;5074396;28;20384;-67
2022/05/06 02:33:30;;;;;;;18.55;11.35;;;9.10;99.90;;;;;;5074586;28;20131;-66
2022/05/06 02:35:56;;;;;;;19.83;11.15;;;9.00;99.90;;;;;;5056173;28;20021;-68
2022/05/06 02:38:23;;;;;;;20.52;11.27;;;9.00;99.90;;;;;;5075314;28;20021;-66
2022/05/06 02:40:49;;;;;;;19.27;11.70;;;8.90;99.90;;;;;;5075139;28;20078;-67
2022/05/06 02:43:15;;;;;;;19.02;10.60;;;8.90;99.90;;;;;;5075793;28;20020;-67
2022/05/06 02:45:41;;;;;;;19.60;11.40;;;8.90;99.90;;;;;;5075228;28;20028;-67
2022/05/06 02:48:07;;;;;;;20.65;10.70;;;8.90;99.90;;;;;;5075172;28;20031;-68
2022/05/06 02:50:33;;;;;;;28.30;13.15;;;8.90;99.90;;;;;;5075745;28;20046;-68
2022/05/06 02:52:59;;;;;;;18.27;10.68;;;8.90;99.90;;;;;;5075449;28;20016;-69
2022/05/06 02:55:25;;;;;;;21.25;11.75;;;8.90;99.90;;;;;;5074187;28;20021;-66
2022/05/06 02:57:51;;;;;;;20.98;12.00;;;8.80;99.90;;;;;;5074024;28;20020;-67
2022/05/06 03:00:17;;;;;;;19.88;11.25;;;8.80;99.90;;;;;;5073996;28;20388;-67
2022/05/06 03:02:43;;;;;;;19.85;11.65;;;8.70;99.90;;;;;;5073796;28;20029;-67
2022/05/06 03:05:10;;;;;;;19.02;10.90;;;8.60;99.90;;;;;;5073627;28;20093;-67
2022/05/06 03:07:36;;;;;;;20.00;12.63;;;8.60;99.90;;;;;;5056270;28;20032;-68
2022/05/06 03:10:03;;;;;;;21.00;11.60;;;8.60;99.90;;;;;;5073556;28;20020;-67
2022/05/06 03:12:30;;;;;;;32.80;19.20;;;8.50;99.90;;;;;;5073563;28;20055;-66
2022/05/06 03:14:57;;;;;;;42.43;24.43;;;8.60;99.90;;;;;;5073650;28;20023;-67
2022/05/06 03:17:23;;;;;;;31.40;17.88;;;8.50;99.90;;;;;;5073242;28;20028;-68
2022/05/06 03:19:49;;;;;;;29.40;16.33;;;8.50;99.90;;;;;;5073467;28;20075;-67
2022/05/06 03:22:17;;;;;;;30.75;18.15;;;8.50;99.90;;;;;;5073874;28;20476;-67
2022/05/06 03:24:44;;;;;;;27.33;16.15;;;8.50;99.90;;;;;;5073148;28;20027;-68
2022/05/06 03:27:59;;;;;;;23.45;13.48;;;8.40;99.90;;;;;;5073608;28;20112;-67
2022/05/06 03:29:56;;;;;;;21.13;12.63;;;8.50;99.90;;;;;;5073049;28;20115;-67
2022/05/06 03:32:22;;;;;;;23.60;13.60;;;8.50;99.90;;;;;;5073518;28;20024;-68
2022/05/06 03:34:49;;;;;;;23.80;13.68;;;8.50;99.90;;;;;;5073193;28;20047;-68
2022/05/06 03:37:15;;;;;;;21.67;13.43;;;8.50;99.90;;;;;;5072921;28;20024;-68
2022/05/06 03:39:40;;;;;;;20.25;12.30;;;8.50;99.90;;;;;;5072990;28;20048;-69
2022/05/06 03:42:06;;;;;;;21.48;13.60;;;8.50;99.90;;;;;;5072905;28;20105;-66
2022/05/06 03:44:32;;;;;;;21.85;13.00;;;8.50;99.90;;;;;;5055226;28;20166;-67
2022/05/06 03:46:57;;;;;;;19.88;12.43;;;8.50;99.90;;;;;;5073581;28;20033;-67
2022/05/06 03:49:23;;;;;;;20.48;12.52;;;8.50;99.90;;;;;;5073767;28;20029;-68
2022/05/06 03:51:49;;;;;;;22.65;13.25;;;8.50;99.90;;;;;;5055589;28;20447;-67
2022/05/06 03:54:15;;;;;;;24.48;14.38;;;8.40;99.90;;;;;;5055011;28;20021;-67
2022/05/06 03:56:40;;;;;;;19.73;12.30;;;8.50;99.90;;;;;;5072815;28;20021;-67
2022/05/06 03:59:06;;;;;;;19.75;12.48;;;8.50;99.90;;;;;;5072753;28;20024;-67
2022/05/06 04:01:33;;;;;;;24.02;14.00;;;8.50;99.90;;;;;;5072986;28;20038;-68
2022/05/06 04:03:58;;;;;;;20.42;13.07;;;8.50;99.90;;;;;;5072998;28;20054;-67
2022/05/06 04:06:24;;;;;;;23.27;12.88;;;8.50;99.90;;;;;;5072520;28;20025;-67
2022/05/06 04:08:50;;;;;;;20.70;13.00;;;8.50;99.90;;;;;;5071908;28;20027;-67
2022/05/06 04:11:17;;;;;;;22.58;12.80;;;8.50;99.90;;;;;;5072823;28;20020;-68
2022/05/06 04:13:43;;;;;;;19.80;12.93;;;8.50;99.90;;;;;;5054623;28;20058;-67
2022/05/06 04:16:08;;;;;;;21.02;13.15;;;8.50;99.90;;;;;;5072330;28;20052;-68
2022/05/06 04:18:34;;;;;;;20.00;12.25;;;8.60;99.90;;;;;;5072487;28;20043;-66
2022/05/06 04:23:44;;;;;;;19.17;12.48;;;8.60;99.90;;;;;;5072336;28;20043;-67
2022/05/06 04:26:13;;;;;;;22.65;14.15;;;8.60;99.90;;;;;;5071886;28;20389;-67
2022/05/06 04:28:40;;;;;;;22.05;13.52;;;8.60;99.90;;;;;;5072116;28;20083;-67
2022/05/06 04:31:07;;;;;;;23.30;13.65;;;8.60;99.90;;;;;;5072096;28;20029;-67
2022/05/06 04:33:34;;;;;;;23.45;14.35;;;8.70;99.90;;;;;;5072133;28;20024;-66
2022/05/06 04:36:00;;;;;;;25.73;13.90;;;8.70;99.90;;;;;;5072019;28;20111;-68
2022/05/06 04:38:26;;;;;;;21.55;13.60;;;8.80;99.90;;;;;;5071949;28;20025;-68
2022/05/06 04:40:56;;;;;;;20.52;13.20;;;8.90;99.90;;;;;;5071861;28;20028;-67
2022/05/06 04:43:22;;;;;;;21.83;14.32;;;9.00;99.90;;;;;;5071584;28;20068;-68
2022/05/06 04:45:51;;;;;;;22.17;14.05;;;9.00;99.90;;;;;;5071678;28;20379;-67
2022/05/06 04:48:17;;;;;;;23.52;13.23;;;9.10;99.90;;;;;;5071709;28;20116;-68
2022/05/06 04:50:44;;;;;;;24.15;14.32;;;9.10;99.90;;;;;;5071471;28;20032;-67
2022/05/06 04:53:11;;;;;;;20.55;12.93;;;9.10;99.90;;;;;;5071755;28;20388;-67
2022/05/06 04:55:40;;;;;;;24.75;14.00;;;9.20;99.90;;;;;;5071743;28;20017;-67
2022/05/06 04:58:06;;;;;;;;;;;9.20;99.90;;;;;;5072049;28;20052;-67
2022/05/06 05:00:32;;;;;;;26.48;13.80;;;9.30;99.90;;;;;;5071505;28;19944;-68
2022/05/06 05:02:58;;;;;;;22.85;13.95;;;9.30;99.90;;;;;;5071766;28;20048;-68
2022/05/06 05:05:24;;;;;;;21.05;13.55;;;9.30;99.90;;;;;;5071700;28;20021;-67
2022/05/06 05:07:51;;;;;;;23.33;14.52;;;9.40;99.90;;;;;;5053169;28;20031;-68
2022/05/06 05:10:17;;;;;;;24.67;14.60;;;9.50;99.90;;;;;;5071244;28;20025;-68
2022/05/06 05:12:42;;;;;;;23.15;14.23;;;9.50;99.90;;;;;;5053266;28;20417;-68
2022/05/06 05:15:09;;;;;;;23.73;15.40;;;9.60;99.90;;;;;;5053436;28;20025;-68
2022/05/06 05:17:34;;;;;;;22.98;14.70;;;9.70;99.90;;;;;;5071201;28;20052;-67
2022/05/06 05:20:01;;;;;;;23.58;14.48;;;9.80;99.90;;;;;;5074124;28;20024;-68
2022/05/06 05:22:26;;;;;;;25.17;14.00;;;9.90;99.90;;;;;;5074977;28;20032;-68
2022/05/06 05:24:52;;;;;;;21.73;13.98;;;10.00;99.90;;;;;;5074731;28;20029;-66
2022/05/06 05:27:18;;;;;;;25.10;14.05;;;10.10;99.90;;;;;;5074825;28;20033;-67
2022/05/06 05:29:43;;;;;;;21.25;13.50;;;10.10;99.90;;;;;;5056501;28;20404;-67
2022/05/06 05:32:10;;;;;;;23.50;14.57;;;10.20;99.90;;;;;;5074619;28;20039;-69
2022/05/06 05:34:36;;;;;;;22.60;14.18;;;10.20;99.90;;;;;;5074481;28;20481;-68
2022/05/06 05:37:02;;;;;;;20.75;14.30;;;10.30;99.90;;;;;;5073779;28;20031;-66
2022/05/06 05:39:27;;;;;;;21.90;13.27;;;10.40;99.90;;;;;;5056476;28;20074;-68
2022/05/06 05:41:53;;;;;;;23.65;14.30;;;10.50;99.90;;;;;;5074424;28;20031;-67
2022/05/06 05:49:48;;;;;;;22.10;14.13;;;10.70;99.90;;;;;;5073916;28;20031;-67
2022/05/06 05:52:14;;;;;;;24.35;14.02;;;10.80;99.90;;;;;;5073893;28;20021;-68
2022/05/06 05:54:40;;;;;;;23.77;14.40;;;10.90;99.90;;;;;;5055899;28;20096;-67
2022/05/06 05:57:06;;;;;;;22.80;14.23;;;11.10;99.90;;;;;;5055740;28;20021;-66
2022/05/06 05:59:33;;;;;;;24.13;14.80;;;11.20;99.90;;;;;;5056071;28;20115;-69
2022/05/06 06:01:59;;;;;;;22.98;15.00;;;11.30;99.90;;;;;;5056438;28;20534;-66
2022/05/06 06:04:25;;;;;;;21.08;14.13;;;11.40;99.90;;;;;;5056354;28;20050;-68
2022/05/06 06:06:51;;;;;;;23.98;14.82;;;11.40;99.90;;;;;;5075759;28;20054;-67
2022/05/06 06:09:17;;;;;;;25.77;15.25;;;11.60;99.90;;;;;;5074142;28;20021;-68
2022/05/06 06:11:43;;;;;;;21.95;14.48;;;11.70;99.90;;;;;;5073984;28;20062;-67
2022/05/06 06:14:09;;;;;;;21.05;13.85;;;11.80;99.90;;;;;;5073959;28;20043;-67
2022/05/06 06:16:35;;;;;;;24.92;14.82;;;11.90;99.90;;;;;;5073100;28;20033;-68
2022/05/06 06:19:00;;;;;;;22.02;14.05;;;12.10;99.90;;;;;;5109952;22;20040;-66
2022/05/06 06:21:27;;;;;;;23.23;14.60;;;12.10;99.90;;;;;;5093279;28;20047;-68
2022/05/06 06:23:53;;;;;;;28.27;15.45;;;12.10;99.90;;;;;;5074936;28;20111;-67
2022/05/06 06:26:19;;;;;;;24.27;14.35;;;12.20;99.90;;;;;;5075628;28;20032;-67
2022/05/06 06:28:44;;;;;;;30.30;16.23;;;12.20;99.90;;;;;;5094194;28;20027;-66
2022/05/06 06:31:10;;;;;;;24.40;15.80;;;12.30;99.90;;;;;;5092757;28;20032;-66
2022/05/06 06:33:38;;;;;;;24.05;15.48;;;12.40;99.90;;;;;;5093605;28;20475;-65
2022/05/06 06:36:07;;;;;;;30.20;16.33;;;12.40;99.90;;;;;;5095223;28;20040;-65
2022/05/06 06:38:32;;;;;;;24.23;14.50;;;12.60;99.90;;;;;;5094161;28;20023;-66
2022/05/06 06:40:59;;;;;;;24.92;15.27;;;12.80;99.90;;;;;;5093693;28;20130;-66
2022/05/06 06:43:26;;;;;;;24.38;14.00;;;12.90;99.90;;;;;;5094081;28;20074;-66
2022/05/06 06:45:52;;;;;;;24.10;16.48;;;13.10;99.90;;;;;;5093861;28;20024;-66
2022/05/06 06:48:17;;;;;;;22.50;14.48;;;13.10;99.90;;;;;;5093813;28;20042;-66
2022/05/06 06:50:43;;;;;;;23.85;15.88;;;13.30;99.90;;;;;;5093156;28;20353;-66
2022/05/06 06:53:08;;;;;;;25.17;14.75;;;13.50;99.90;;;;;;5093947;28;20100;-67
2022/05/06 06:55:34;;;;;;;24.30;14.35;;;13.60;99.90;;;;;;5093007;28;20099;-67
2022/05/06 06:58:00;;;;;;;22.95;15.25;;;13.70;99.90;;;;;;5093214;28;20063;-67
2022/05/06 07:00:26;;;;;;;23.30;14.40;;;13.70;99.90;;;;;;5075466;28;20075;-65
2022/05/06 07:02:53;;;;;;;24.77;15.65;;;13.80;99.90;;;;;;5075387;28;20473;-67
2022/05/06 07:05:18;;;;;;;23.02;14.57;;;13.90;99.90;;;;;;5074563;28;20093;-65
2022/05/06 07:13:12;;;;;;;24.08;14.70;;;14.30;99.90;;;;;;5093168;28;20130;-67
2022/05/06 07:15:38;;;;;;;23.05;14.15;;;14.40;99.90;;;;;;5092396;28;20174;-67
2022/05/06 07:18:04;;;;;;;23.30;14.80;;;14.50;99.90;;;;;;5092956;28;20039;-67
2022/05/06 07:20:30;;;;;;;26.00;14.95;;;14.60;99.90;;;;;;5092920;28;20020;-67
2022/05/06 07:22:55;;;;;;;27.52;14.60;;;14.70;99.90;;;;;;5092851;28;20441;-64
2022/05/06 07:25:21;;;;;;;31.15;14.75;;;14.80;99.90;;;;;;5092573;28;20036;-68
2022/05/06 07:27:47;;;;;;;24.55;13.75;;;14.80;99.90;;;;;;5092010;28;20024;-67
2022/05/06 07:30:12;;;;;;;23.67;14.77;;;14.90;99.90;;;;;;5092879;28;20408;-67
2022/05/06 07:32:38;;;;;;;22.13;14.65;;;15.10;99.90;;;;;;5074725;28;20028;-68
2022/05/06 07:35:04;;;;;;;22.17;14.88;;;15.20;99.90;;;;;;5074519;28;20031;-67
2022/05/06 07:37:33;;;;;;;22.55;14.95;;;15.30;99.90;;;;;;5092757;28;20020;-67
2022/05/06 07:40:04;;;;;;;21.30;14.77;;;15.40;99.90;;;;;;5074406;28;20021;-65
2022/05/06 07:42:30;;;;;;;27.25;16.38;;;15.40;99.90;;;;;;5092418;28;20487;-68
2022/05/06 07:44:57;;;;;;;23.08;15.02;;;15.50;99.90;;;;;;5092291;28;20031;-68
2022/05/06 07:47:23;;;;;;;23.23;15.55;;;15.60;99.90;;;;;;5092077;28;20024;-68
2022/05/06 07:49:49;;;;;;;22.13;14.85;;;15.70;99.90;;;;;;5092093;28;20391;-66
2022/05/06 07:52:15;;;;;;;25.73;15.25;;;15.80;99.90;;;;;;5091670;28;20050;-68
2022/05/06 07:54:41;;;;;;;21.70;14.68;;;15.90;99.90;;;;;;5091676;28;20074;-69
2022/05/06 07:57:06;;;;;;;22.73;15.15;;;16.00;99.90;;;;;;5092150;28;20553;-67
2022/05/06 07:59:32;;;;;;;21.10;13.88;;;16.20;99.90;;;;;;5091708;28;20366;-68
2022/05/06 08:04:47;;;;;;;25.58;16.08;;;16.20;99.90;;;;;;5091439;28;20035;-67
2022/05/06 08:07:13;;;;;;;24.42;16.20;;;16.30;99.90;;;;;;5073124;28;20035;-67
2022/05/06 08:09:38;;;;;;;26.63;17.27;;;16.30;99.90;;;;;;5073324;28;20036;-66
2022/05/06 08:12:05;;;;;;;25.73;16.75;;;16.50;99.90;;;;;;5091729;28;20024;-66
2022/05/06 08:14:31;;;;;;;24.00;16.23;;;16.70;99.90;;;;;;5091712;28;20063;-67
2022/05/06 08:16:57;;;;;;;25.20;16.25;;;16.80;99.90;;;;;;5091870;28;20024;-67
2022/05/06 08:19:22;;;;;;;26.58;17.98;;;16.90;99.90;;;;;;5091271;28;20032;-67
2022/05/06 08:21:48;;;;;;;31.92;19.85;;;17.00;99.90;;;;;;5073293;28;20181;-65
2022/05/06 08:24:14;;;;;;;27.15;18.17;;;17.10;99.90;;;;;;5091878;28;20425;-67
2022/05/06 08:26:40;;;;;;;25.60;18.17;;;17.00;99.90;;;;;;5091830;28;20052;-66
2022/05/06 08:29:05;;;;;;;26.58;19.30;;;17.10;99.90;;;;;;5073298;28;20158;-66
2022/05/06 08:31:32;;;;;;;27.80;16.95;;;17.10;99.90;;;;;;5091614;28;20475;-66
2022/05/06 08:33:58;;;;;;;25.33;17.95;;;17.20;99.90;;;;;;5091656;28;20016;-66
2022/05/06 08:36:24;;;;;;;26.08;19.23;;;17.30;99.90;;;;;;5091416;28;20433;-66
2022/05/06 08:38:50;;;;;;;28.33;19.27;;;17.50;99.90;;;;;;5091556;28;20020;-66
2022/05/06 08:41:16;;;;;;;25.27;18.40;;;17.60;99.90;;;;;;5091629;28;20028;-66
2022/05/06 08:43:42;;;;;;;26.52;19.40;;;17.60;99.90;;;;;;5091427;28;20086;-67
2022/05/06 08:51:39;;;;;;;28.35;19.60;;;17.70;99.90;;;;;;5090675;28;20078;-66
2022/05/06 08:54:05;;;;;;;29.95;19.98;;;17.70;99.90;;;;;;5092366;28;20068;-66
2022/05/06 08:56:31;;;;;;;29.50;20.40;;;17.80;99.90;;;;;;5095608;28;20046;-66
2022/05/06 08:59:00;;;;;;;30.30;19.63;;;17.90;99.90;;;;;;5077001;28;20020;-64
2022/05/06 09:01:26;;;;;;;28.73;19.40;;;18.00;99.90;;;;;;5076424;28;20038;-66
2022/05/06 09:03:52;;;;;;;30.35;21.05;;;18.20;99.90;;;;;;5095595;28;20416;-65
2022/05/06 09:06:18;;;;;;;29.15;21.55;;;18.30;98.80;;;;;;5095474;28;20056;-65
2022/05/06 09:08:44;;;;;;;30.48;23.23;;;18.40;99.30;;;;;;5095553;28;20068;-66
2022/05/06 09:11:11;;;;;;;30.92;22.10;;;18.50;99.30;;;;;;5095905;28;20020;-66
2022/05/06 09:13:58;;;;;;;33.20;23.08;;;18.50;99.50;;;;;;5096745;28;20098;-65
2022/05/06 09:16:39;;;;;;;30.30;22.33;;;18.50;99.90;;;;;;5077166;28;20049;-65
2022/05/06 09:19:29;;;;;;;30.70;22.05;;;18.60;99.10;;;;;;5094578;28;20039;-65
2022/05/06 09:22:11;;;;;;;35.00;24.10;;;18.90;99.10;;;;;;5076714;28;20478;-64
2022/05/06 09:24:38;;;;;;;31.58;24.13;;;18.80;98.00;;;;;;5094590;28;20020;-65
2022/05/06 09:27:14;;;;;;;33.15;24.38;;;18.80;98.00;;;;;;5076533;28;20111;-65
2022/05/06 09:30:05;;;;;;;32.65;23.67;;;18.60;98.50;;;;;;5078321;28;20097;-65
2022/05/06 09:32:31;;;;;;;33.08;25.50;;;18.60;98.80;;;;;;5077711;28;20030;-66
2022/05/06 09:35:19;;;;;;;34.78;26.65;;;18.60;98.20;;;;;;5076004;28;20119;-65
2022/05/06 09:37:47;;;;;;;30.98;23.60;;;18.60;98.50;;;;;;5094886;28;20023;-65
2022/05/06 09:40:20;;;;;;;34.47;24.43;;;19.20;98.20;;;;;;5094294;28;20111;-66
2022/05/06 09:42:55;;;;;;;31.17;23.25;;;19.50;97.20;;;;;;5094434;28;20035;-65
2022/05/06 09:45:34;;;;;;;29.52;22.25;;;19.80;96.70;;;;;;5093540;28;20485;-66
2022/05/06 09:48:01;;;;;;;29.52;22.65;;;20.00;95.30;;;;;;5096277;28;20020;-66
2022/05/06 09:50:32;;;;;;;28.67;21.38;;;20.00;95.40;;;;;;5096431;28;20035;-67
2022/05/06 09:53:03;;;;;;;30.30;23.00;;;20.50;94.60;;;;;;5068018;28;20086;-64
2022/05/06 09:55:30;;;;;;;30.90;22.75;;;20.70;94.20;;;;;;5074109;28;20085;-65
2022/05/06 09:57:59;;;;;;;27.67;21.40;;;21.00;93.60;;;;;;5056183;28;20036;-65
2022/05/06 10:00:28;;;;;;;29.63;22.35;;;21.00;94.30;;;;;;5074183;28;20060;-65
2022/05/06 10:02:57;;;;;;;27.67;22.05;;;20.80;94.30;;;;;;5060366;28;20089;-66
2022/05/06 10:05:24;;;;;;;30.27;23.20;;;21.10;93.90;;;;;;5084362;28;20027;-65
2022/05/06 10:07:53;;;;;;;28.08;22.00;;;21.00;93.70;;;;;;5081595;28;20111;-65
2022/05/06 10:10:23;;;;;;;27.42;20.60;;;20.80;92.70;;;;;;5073739;28;20493;-61
2022/05/06 10:13:02;;;;;;;47.90;41.60;;;20.60;92.50;;;;;;5056103;28;20033;-62
2022/05/06 10:15:30;;;;;;;28.98;23.08;;;20.30;93.50;;;;;;5074009;28;20066;-66
2022/05/06 10:18:02;;;;;;;31.98;23.05;;;20.00;93.20;;;;;;5074398;28;20444;-67
2022/05/06 10:20:51;;;;;;;32.38;23.92;;;20.10;93.70;;;;;;5084980;28;20024;-66
2022/05/06 10:23:18;;;;;;;32.15;25.85;;;20.20;94.00;;;;;;5081592;28;20461;-66
2022/05/06 10:25:44;;;;;;;36.17;26.42;;;19.90;94.20;;;;;;5094737;28;20103;-66
2022/05/06 10:34:09;;;;;;;29.00;21.25;;;19.80;94.20;;;;;;5094575;28;20088;-67
2022/05/06 10:36:48;;;;;;;29.15;20.42;;;19.60;93.30;;;;;;5076050;28;20040;-66
2022/05/06 10:39:26;;;;;;;28.42;19.45;;;19.50;93.40;;;;;;5094577;28;20024;-66
2022/05/06 10:42:11;;;;;;;29.92;22.02;;;19.30;93.00;;;;;;5094813;28;20063;-66
2022/05/06 10:44:48;;;;;;;28.20;21.48;;;19.30;93.40;;;;;;5094067;28;20032;-66
2022/05/06 10:47:16;;;;;;;30.48;21.85;;;19.70;93.10;;;;;;5093999;28;20043;-66
2022/05/06 10:49:43;;;;;;;29.55;22.40;;;20.20;92.30;;;;;;5094052;28;20023;-66
2022/05/06 10:52:25;;;;;;;27.70;20.63;;;20.50;92.50;;;;;;5094518;28;20386;-66
2022/05/06 10:55:01;;;;;;;27.77;20.02;;;20.80;91.70;;;;;;5094698;28;20061;-66
2022/05/06 10:57:32;;;;;;;26.80;21.00;;;20.80;90.20;;;;;;5094370;28;20028;-66
2022/05/06 11:00:02;;;;;;;25.45;19.80;;;20.90;90.70;;;;;;5094092;28;20077;-65
2022/05/06 11:02:30;;;;;;;28.35;20.48;;;20.90;90.30;;;;;;5094153;28;20028;-64
2022/05/06 11:04:59;;;;;;;28.13;21.67;;;21.10;91.00;;;;;;5093795;28;20497;-66
2022/05/06 11:07:25;;;;;;;29.13;22.60;;;21.70;91.30;;;;;;5094509;28;20033;-66
2022/05/06 11:09:51;;;;;;;28.90;22.83;;;22.50;90.00;;;;;;5093845;28;20388;-66
2022/05/06 11:12:31;;;;;;;30.92;23.90;;;22.90;88.50;;;;;;5075061;28;20028;-66
2022/05/06 11:14:57;;;;;;;30.10;23.90;;;23.50;87.00;;;;;;5095190;28;20020;-65
2022/05/06 11:17:24;;;;;;;30.90;23.90;;;22.50;87.10;;;;;;5092693;28;20108;-65
2022/05/06 11:19:50;;;;;;;30.00;23.83;;;21.90;88.40;;;;;;5093119;28;20047;-66
2022/05/06 11:22:16;;;;;;;28.55;22.02;;;21.50;89.40;;;;;;5092633;28;20460;-65
2022/05/06 11:24:43;;;;;;;31.80;24.73;;;21.10;88.60;;;;;;5091679;28;20051;-57
2022/05/06 11:27:19;;;;;;;27.70;19.85;;;20.90;87.70;;;;;;5092024;28;20411;-65
2022/05/06 11:29:55;;;;;;;23.60;18.15;;;21.20;87.10;;;;;;5091742;28;20032;-66
2022/05/06 11:32:21;;;;;;;24.25;17.58;;;22.90;82.90;;;;;;5091754;28;20067;-65
2022/05/06 11:34:54;;;;;;;25.42;19.10;;;24.00;80.10;;;;;;5091977;28;20024;-66
2022/05/06 11:37:26;;;;;;;25.35;20.48;;;24.90;77.50;;;;;;5069436;28;20431;-65
2022/05/06 11:40:18;;;;;;;25.70;19.60;;;25.70;76.40;;;;;;5072608;28;20098;-64
2022/05/06 11:42:39;;;;;;;26.67;20.90;;;25.60;76.00;;;;;;5072714;28;20104;-64
2022/05/06 11:47:50;;;;;;;25.77;20.83;;;24.00;77.00;;;;;;5071712;28;20032;-65
2022/05/06 11:50:17;;;;;;;26.98;20.38;;;24.60;75.60;;;;;;5070868;28;20056;-64
2022/05/06 11:52:45;;;;;;;24.30;19.40;;;25.30;74.40;;;;;;5071544;28;20079;-64
2022/05/06 11:55:11;;;;;;;22.52;18.20;;;25.60;73.10;;;;;;5071093;28;20112;-65
2022/05/06 11:57:39;;;;;;;25.40;19.77;;;26.60;71.20;;;;;;5053657;28;20028;-64
2022/05/06 12:00:06;;;;;;;24.98;19.73;;;27.40;69.60;;;;;;5072455;28;20210;-64
2022/05/06 12:02:32;;;;;;;25.55;19.52;;;27.40;68.40;;;;;;5072156;28;20035;-66
2022/05/06 12:04:58;;;;;;;24.67;20.08;;;26.40;67.90;;;;;;5071394;28;20445;-64
2022/05/06 12:07:46;;;;;;;24.80;20.13;;;25.20;70.30;;;;;;5070887;28;20036;-65
2022/05/06 12:10:26;;;;;;;24.80;18.98;;;24.20;71.70;;;;;;5071283;28;20073;-64
2022/05/06 12:12:59;;;;;;;26.80;19.23;;;24.20;70.80;;;;;;5070986;28;20032;-64
2022/05/06 12:15:37;;;;;;;24.67;19.52;;;25.00;71.00;;;;;;5070586;28;20449;-64
2022/05/06 12:18:03;;;;;;;24.45;19.13;;;25.90;69.40;;;;;;5033351;28;1104999;-64
2022/05/06 12:20:33;;;;;;;25.75;19.70;;;26.20;69.30;;;;;;5053859;28;20077;-65
2022/05/06 12:22:58;;;;;;;25.75;19.15;;;26.20;66.90;;;;;;5063446;22;20028;-65
2022/05/06 12:25:25;;;;;;;27.83;20.65;;;25.70;67.90;;;;;;5051149;28;20081;-67
2022/05/06 12:28:29;;;;;;;26.67;19.92;;;25.90;66.70;;;;;;5050702;28;20565;-67
2022/05/06 12:30:56;;;;;;;24.35;18.85;;;26.20;68.30;;;;;;4970630;28;20022;-66
2022/05/06 12:33:33;;;;;;;141.25;118.00;;;26.70;66.00;;;;;;4970145;28;20042;-65
2022/05/06 12:36:01;;;;;;;29.10;24.33;;;27.40;63.20;;;;;;5004647;28;20029;-66
2022/05/06 12:38:36;;;;;;;23.30;18.92;;;27.00;61.60;;;;;;5013501;28;20089;-63
2022/05/06 12:41:22;;;;;;;21.85;17.77;;;27.50;62.70;;;;;;5031161;28;20041;-66
2022/05/06 12:43:51;;;;;;;24.88;18.48;;;27.90;62.50;;;;;;5030973;28;20021;-64
2022/05/06 12:46:25;;;;;;;23.67;17.67;;;28.90;60.30;;;;;;5013647;28;20044;-64
2022/05/06 12:51:34;;;;;;;21.92;16.35;;;29.20;57.80;;;;;;5023146;28;20392;-65
2022/05/06 12:54:00;;;;;;;20.75;14.73;;;28.80;56.80;;;;;;5021549;28;20026;-64
2022/05/06 12:56:26;;;;;;;19.08;14.68;;;28.90;54.90;;;;;;5020250;28;20073;-65
2022/05/06 12:58:52;;;;;;;19.25;14.52;;;29.20;54.00;;;;;;5020882;28;20014;-65
2022/05/06 13:01:18;;;;;;;20.30;14.57;;;29.90;54.00;;;;;;5003910;28;20029;-66
2022/05/06 13:03:43;;;;;;;21.88;17.02;;;30.00;53.50;;;;;;5019453;28;20386;-64
2022/05/06 13:06:09;;;;;;;21.38;16.60;;;29.70;54.90;;;;;;5022277;28;20076;-65
2022/05/06 13:08:34;;;;;;;22.23;16.88;;;29.70;55.00;;;;;;5020746;28;20088;-65
2022/05/06 13:11:00;;;;;;;20.83;16.30;;;29.30;53.80;;;;;;5021477;28;20045;-65
2022/05/06 13:13:26;;;;;;;21.00;16.23;;;28.70;54.20;;;;;;5022287;28;20380;-66